Time;durP1;ratioP1;P1;durP2;ratioP2;P2;SDS_P1;SDS_P2;PMS_P1;PMS_P2;Temp;Humidity;BMP_temperature;BMP_pressure;BME280_temperature;BME280_humidity;BME280_pressure;Samples;Min_cycle;Max_cycle;Signal;HPM_P1;HPM_P2
2023/10/15 00:01:46;;;;;;;22.25;11.98;;;18.30;99.60;;;;;;5101253;28;20031;-76
2023/10/15 00:04:12;;;;;;;13.05;11.18;;;18.30;99.30;;;;;;5099416;28;20469;-75
2023/10/15 00:06:40;;;;;;;16.35;11.90;;;18.30;98.70;;;;;;5080116;28;20118;-76
2023/10/15 00:09:06;;;;;;;18.95;12.40;;;18.30;98.70;;;;;;5099347;28;20486;-76
2023/10/15 00:11:32;;;;;;;17.42;12.43;;;18.30;97.80;;;;;;5101766;28;20024;-75
2023/10/15 00:13:58;;;;;;;18.85;12.60;;;18.30;97.60;;;;;;5084609;28;20447;-76
2023/10/15 00:16:24;;;;;;;17.52;12.10;;;18.30;97.60;;;;;;5082008;28;20023;-76
2023/10/15 00:18:50;;;;;;;19.20;12.68;;;18.30;97.20;;;;;;5100194;28;20070;-76
2023/10/15 00:21:16;;;;;;;18.73;13.23;;;18.30;98.50;;;;;;5096022;28;20093;-76
2023/10/15 00:23:44;;;;;;;17.52;12.23;;;18.30;97.90;;;;;;5100696;28;20505;-75
2023/10/15 00:26:14;;;;;;;16.85;12.07;;;18.30;97.60;;;;;;5084269;28;20035;-75
2023/10/15 00:28:40;;;;;;;14.50;12.13;;;18.30;97.50;;;;;;5096101;28;20048;-76
2023/10/15 00:31:09;;;;;;;19.30;13.43;;;18.30;96.60;;;;;;5072609;28;20557;-75
2023/10/15 00:33:36;;;;;;;17.27;12.48;;;18.20;96.40;;;;;;5100763;28;20051;-75
2023/10/15 00:36:04;;;;;;;21.98;12.50;;;18.20;96.80;;;;;;5081376;28;20051;-76
2023/10/15 00:38:30;;;;;;;15.13;12.50;;;18.20;97.10;;;;;;5101188;28;20073;-73
2023/10/15 00:41:01;;;;;;;18.00;12.02;;;18.20;96.30;;;;;;5099701;28;20431;-75
2023/10/15 00:43:27;;;;;;;22.80;12.55;;;18.30;95.20;;;;;;5081426;28;20031;-73
2023/10/15 00:45:53;;;;;;;18.40;13.13;;;18.20;94.90;;;;;;5101529;28;20054;-73
2023/10/15 00:48:33;;;;;;;18.40;11.77;;;18.20;95.70;;;;;;5100631;28;20028;-75
2023/10/15 00:51:03;;;;;;;17.63;11.50;;;18.20;95.30;;;;;;5084439;28;20024;-75
2023/10/15 00:53:29;;;;;;;19.85;12.75;;;18.20;95.00;;;;;;5099628;28;20056;-76
2023/10/15 00:56:04;;;;;;;20.77;13.40;;;18.20;93.80;;;;;;5104266;28;20040;-73
2023/10/15 01:03:57;;;;;;;22.17;13.18;;;18.20;92.80;;;;;;5099181;28;20516;-75
2023/10/15 01:09:09;;;;;;;15.98;12.68;;;18.20;93.20;;;;;;5099400;28;20116;-75
2023/10/15 01:11:51;;;;;;;18.33;12.73;;;18.20;94.00;;;;;;5096199;28;20060;-75
2023/10/15 01:14:25;;;;;;;16.67;12.75;;;18.20;95.00;;;;;;5105117;28;20042;-75
2023/10/15 01:16:52;;;;;;;19.83;14.05;;;18.20;93.20;;;;;;5098406;28;20467;-75
2023/10/15 01:19:31;;;;;;;17.23;12.95;;;18.20;94.50;;;;;;5099981;28;20508;-75
2023/10/15 01:21:57;;;;;;;25.00;13.52;;;18.20;93.60;;;;;;5098204;28;20015;-75
2023/10/15 01:24:33;;;;;;;17.77;13.02;;;18.20;93.80;;;;;;5077087;28;20052;-75
2023/10/15 01:27:00;;;;;;;16.13;12.57;;;18.20;93.20;;;;;;5085150;28;20024;-75
2023/10/15 01:29:27;;;;;;;19.40;13.30;;;18.10;92.90;;;;;;5099000;28;20293;-75
2023/10/15 01:31:58;;;;;;;20.33;13.10;;;18.10;93.00;;;;;;5082065;28;20028;-75
2023/10/15 01:34:25;;;;;;;17.75;14.20;;;18.10;92.90;;;;;;5078056;28;20061;-75
2023/10/15 01:36:51;;;;;;;17.35;12.80;;;18.10;94.00;;;;;;5099447;28;20110;-75
2023/10/15 01:39:37;;;;;;;22.30;13.07;;;18.10;93.30;;;;;;5102335;28;20020;-75
2023/10/15 01:42:05;;;;;;;21.45;12.93;;;18.00;93.10;;;;;;5100763;28;20016;-75
2023/10/15 01:44:33;;;;;;;17.48;13.18;;;18.10;93.50;;;;;;5080926;28;20386;-76
2023/10/15 01:49:31;;;;;;;23.42;14.40;;;18.10;93.40;;;;;;5096778;28;20398;-76
2023/10/15 01:52:09;;;;;;;21.27;13.05;;;18.10;92.70;;;;;;5099225;28;20400;-75
2023/10/15 01:54:44;;;;;;;15.88;13.07;;;18.10;93.00;;;;;;5100100;28;20028;-76
2023/10/15 01:57:14;;;;;;;18.17;13.32;;;18.10;92.80;;;;;;5100144;28;20076;-76
2023/10/15 01:59:47;;;;;;;19.83;13.30;;;18.00;92.70;;;;;;5063273;28;20017;-76
2023/10/15 02:02:18;;;;;;;24.02;14.32;;;18.00;93.10;;;;;;5099970;28;20518;-75
2023/10/15 02:04:46;;;;;;;18.77;13.32;;;18.00;93.50;;;;;;5094359;28;20032;-75
2023/10/15 02:07:22;;;;;;;20.00;14.00;;;18.00;93.30;;;;;;5081355;28;20142;-75
2023/10/15 02:09:48;;;;;;;21.98;15.00;;;18.00;91.60;;;;;;5100011;28;20020;-75
2023/10/15 02:12:18;;;;;;;18.40;14.00;;;18.00;91.60;;;;;;5102942;28;20027;-75
2023/10/15 02:14:44;;;;;;;20.80;14.77;;;18.00;91.60;;;;;;5067096;28;20077;-75
2023/10/15 02:17:14;;;;;;;20.05;13.20;;;18.00;91.50;;;;;;5099455;28;20020;-76
2023/10/15 02:19:40;;;;;;;24.23;13.55;;;17.90;91.30;;;;;;5097598;28;20099;-76
2023/10/15 02:22:07;;;;;;;22.70;13.65;;;17.90;91.40;;;;;;5103654;28;20019;-76
2023/10/15 02:24:34;;;;;;;18.20;13.93;;;17.90;92.10;;;;;;5085470;28;20020;-75
2023/10/15 02:27:08;;;;;;;19.15;13.80;;;17.90;92.10;;;;;;5098779;28;20047;-76
2023/10/15 02:29:35;;;;;;;21.88;14.80;;;17.90;92.80;;;;;;5103245;28;20028;-76
2023/10/15 02:34:46;;;;;;;25.35;13.95;;;17.90;92.80;;;;;;5102937;28;20042;-75
2023/10/15 02:37:17;;;;;;;20.60;15.00;;;17.90;92.30;;;;;;5071197;28;20032;-76
2023/10/15 02:40:12;;;;;;;20.60;13.52;;;17.90;90.90;;;;;;5077133;28;20021;-76
2023/10/15 02:42:31;;;;;;;18.30;13.05;;;17.90;90.10;;;;;;5078557;28;20051;-75
2023/10/15 02:45:01;;;;;;;20.30;14.13;;;17.90;90.80;;;;;;5060237;28;20390;-75
2023/10/15 02:47:41;;;;;;;22.42;13.35;;;17.90;90.70;;;;;;5082627;28;20522;-76
2023/10/15 02:50:10;;;;;;;23.63;13.90;;;17.90;91.20;;;;;;5076567;28;20024;-75
2023/10/15 02:52:35;;;;;;;20.58;14.02;;;17.90;90.90;;;;;;5083733;28;20025;-76
2023/10/15 02:55:11;;;;;;;19.67;13.95;;;17.80;91.30;;;;;;5081650;28;20031;-76
2023/10/15 02:57:41;;;;;;;20.48;13.68;;;17.80;90.20;;;;;;5062430;28;20538;-76
2023/10/15 03:03:14;;;;;;;20.33;14.75;;;17.80;89.20;;;;;;5051095;28;20032;-76
2023/10/15 03:05:40;;;;;;;18.35;13.27;;;17.70;89.80;;;;;;5071869;28;20067;-76
2023/10/15 03:08:06;;;;;;;17.15;13.68;;;17.80;88.50;;;;;;5083301;28;20077;-76
2023/10/15 03:13:18;;;;;;;18.40;13.48;;;17.80;84.70;;;;;;5079699;28;20082;-75
2023/10/15 03:15:49;;;;;;;19.95;13.68;;;17.80;81.80;;;;;;5082050;28;20031;-75
2023/10/15 03:18:22;;;;;;;18.98;13.82;;;17.80;83.80;;;;;;5081482;28;20070;-75
2023/10/15 03:20:49;;;;;;;22.35;13.35;;;17.80;81.10;;;;;;5071548;28;20386;-75
2023/10/15 03:23:18;;;;;;;20.45;13.20;;;17.80;78.70;;;;;;5082859;28;20028;-76
2023/10/15 03:25:47;;;;;;;26.40;13.57;;;17.80;77.80;;;;;;5083456;28;20056;-76
2023/10/15 03:28:13;;;;;;;20.25;12.85;;;17.80;76.60;;;;;;5059559;28;20060;-75
2023/10/15 03:30:44;;;;;;;18.80;13.07;;;17.80;78.50;;;;;;5079908;28;20062;-76
2023/10/15 03:33:13;;;;;;;17.88;12.73;;;17.80;78.00;;;;;;5082358;28;20020;-76
2023/10/15 03:35:43;;;;;;;19.33;13.13;;;17.80;76.20;;;;;;5087609;28;20047;-76
2023/10/15 03:38:15;;;;;;;19.52;13.48;;;17.80;77.30;;;;;;5098579;28;20678;-75
2023/10/15 03:40:47;;;;;;;20.02;12.75;;;17.70;77.10;;;;;;5102823;28;20039;-75
2023/10/15 03:43:20;;;;;;;16.70;13.30;;;17.70;75.70;;;;;;5101315;28;20097;-76
2023/10/15 03:45:52;;;;;;;15.57;12.40;;;17.70;76.70;;;;;;5079249;28;20498;-76
2023/10/15 03:48:27;;;;;;;18.48;12.60;;;17.70;73.60;;;;;;5102432;28;20032;-76
2023/10/15 03:50:57;;;;;;;19.48;12.63;;;17.70;75.50;;;;;;5097449;28;20487;-75
2023/10/15 03:53:28;;;;;;;18.95;12.70;;;17.70;75.90;;;;;;5084344;28;20374;-76
2023/10/15 03:56:01;;;;;;;17.05;12.55;;;17.70;74.10;;;;;;5084734;28;20027;-76
2023/10/15 03:58:27;;;;;;;16.60;12.70;;;17.70;75.30;;;;;;5097644;28;20024;-76
2023/10/15 04:03:35;;;;;;;19.15;13.32;;;17.60;74.80;;;;;;5097401;28;20529;-76
2023/10/15 04:06:05;;;;;;;20.20;12.60;;;17.70;75.60;;;;;;5101850;28;20055;-75
2023/10/15 04:08:32;;;;;;;15.07;12.07;;;17.70;76.00;;;;;;5102079;28;20069;-76
2023/10/15 04:10:58;;;;;;;16.48;12.48;;;17.70;71.20;;;;;;5100982;28;20427;-75
2023/10/15 04:13:27;;;;;;;21.42;12.48;;;17.70;68.90;;;;;;5100707;28;20028;-75
2023/10/15 04:15:57;;;;;;;20.40;13.48;;;17.70;66.60;;;;;;5098171;28;20130;-75
2023/10/15 04:18:23;;;;;;;16.02;12.07;;;17.70;66.20;;;;;;5084014;28;20041;-75
2023/10/15 04:20:54;;;;;;;17.80;12.80;;;17.70;66.90;;;;;;5103730;28;20019;-76
2023/10/15 04:23:38;;;;;;;19.52;12.77;;;17.70;67.60;;;;;;5082053;28;20039;-75
2023/10/15 04:26:12;;;;;;;16.83;11.73;;;17.70;65.10;;;;;;5060645;28;20036;-76
2023/10/15 04:28:38;;;;;;;16.65;12.50;;;17.70;60.00;;;;;;5096748;28;20487;-76
2023/10/15 04:31:21;;;;;;;18.10;13.63;;;17.70;60.10;;;;;;5097820;28;20107;-75
2023/10/15 04:33:50;;;;;;;20.05;11.90;;;17.60;59.80;;;;;;5080788;28;20027;-75
2023/10/15 04:36:16;;;;;;;16.95;12.30;;;17.60;61.90;;;;;;5100565;28;20043;-75
2023/10/15 04:38:42;;;;;;;20.00;12.57;;;17.60;63.00;;;;;;5102415;28;20020;-75
2023/10/15 04:41:11;;;;;;;15.82;12.27;;;17.60;65.40;;;;;;5103594;28;20019;-75
2023/10/15 04:43:45;;;;;;;14.15;11.95;;;17.50;67.70;;;;;;5100913;28;20030;-75
2023/10/15 04:46:17;;;;;;;13.30;11.82;;;17.50;70.00;;;;;;5100240;28;20047;-75
2023/10/15 04:48:50;;;;;;;14.65;12.70;;;17.50;71.30;;;;;;5081427;28;20035;-76
2023/10/15 04:51:16;;;;;;;16.98;12.52;;;17.40;70.50;;;;;;5076928;28;20430;-76
2023/10/15 04:53:44;;;;;;;14.95;13.00;;;17.40;69.40;;;;;;5101173;28;20107;-75
2023/10/15 04:56:11;;;;;;;13.98;11.88;;;17.50;69.20;;;;;;5084373;28;20439;-76
2023/10/15 04:58:37;;;;;;;17.25;12.75;;;17.40;67.60;;;;;;5099766;28;20047;-76
2023/10/15 05:01:06;;;;;;;17.15;11.98;;;17.40;68.30;;;;;;5103711;28;20069;-76
2023/10/15 05:03:32;;;;;;;19.73;12.57;;;17.40;68.00;;;;;;5100165;28;20045;-76
2023/10/15 05:06:02;;;;;;;17.85;12.13;;;17.40;68.40;;;;;;5095673;28;20460;-75
2023/10/15 05:08:27;;;;;;;15.98;12.27;;;17.40;69.30;;;;;;5099077;28;20028;-75
2023/10/15 05:10:54;;;;;;;16.27;11.70;;;17.40;72.60;;;;;;5099719;28;20089;-76
2023/10/15 05:13:20;;;;;;;18.05;12.55;;;17.30;72.50;;;;;;5095489;28;20020;-75
2023/10/15 05:15:52;;;;;;;17.27;12.68;;;17.30;73.30;;;;;;5098921;28;20500;-75
2023/10/15 05:18:19;;;;;;;17.17;12.00;;;17.30;71.10;;;;;;5100911;28;20048;-75
2023/10/15 05:20:49;;;;;;;17.08;12.82;;;17.30;67.90;;;;;;5095807;28;20024;-75
2023/10/15 05:23:15;;;;;;;20.25;12.07;;;17.30;66.70;;;;;;5096012;28;20032;-73
2023/10/15 05:25:41;;;;;;;17.45;12.75;;;17.30;65.50;;;;;;5099267;28;20056;-75
2023/10/15 05:28:07;;;;;;;18.48;12.05;;;17.30;65.40;;;;;;5101711;28;20155;-75
2023/10/15 05:30:33;;;;;;;17.60;11.75;;;17.30;65.80;;;;;;5104838;28;20028;-76
2023/10/15 05:33:02;;;;;;;14.98;11.57;;;17.30;64.10;;;;;;5103016;28;20023;-75
2023/10/15 05:35:28;;;;;;;21.15;12.95;;;17.30;61.80;;;;;;5097651;28;20036;-76
2023/10/15 05:37:57;;;;;;;17.00;12.95;;;17.30;62.10;;;;;;5102913;28;20270;-75
2023/10/15 05:40:22;;;;;;;19.08;12.85;;;17.40;60.00;;;;;;5096419;28;20058;-76
2023/10/15 05:42:49;;;;;;;16.55;11.98;;;17.40;59.80;;;;;;5100124;28;20068;-75
2023/10/15 05:45:15;;;;;;;14.43;11.57;;;17.40;61.50;;;;;;5076777;28;20540;-76
2023/10/15 05:47:44;;;;;;;13.38;12.00;;;17.30;64.20;;;;;;5099843;28;20107;-77
2023/10/15 05:50:12;;;;;;;15.20;12.30;;;17.40;59.30;;;;;;5099545;28;20059;-77
2023/10/15 05:52:41;;;;;;;19.00;11.88;;;17.30;60.20;;;;;;5101320;28;20012;-77
2023/10/15 05:55:07;;;;;;;17.13;12.93;;;17.20;64.50;;;;;;5102075;28;20115;-77
2023/10/15 05:57:36;;;;;;;17.10;12.32;;;17.20;70.70;;;;;;5103370;28;20058;-77
2023/10/15 06:00:17;;;;;;;19.58;11.52;;;17.10;72.30;;;;;;5100344;28;20057;-77
2023/10/15 06:02:47;;;;;;;15.73;11.80;;;17.20;72.80;;;;;;5103744;28;20028;-77
2023/10/15 06:05:16;;;;;;;15.35;12.45;;;17.10;74.90;;;;;;5099504;28;20028;-77
2023/10/15 06:07:43;;;;;;;22.95;12.43;;;17.10;77.30;;;;;;5082918;28;20481;-76
2023/10/15 06:10:11;;;;;;;15.23;12.15;;;17.10;79.40;;;;;;5100693;28;20036;-77
2023/10/15 06:12:40;;;;;;;19.30;13.25;;;17.10;76.00;;;;;;5087757;28;20083;-77
2023/10/15 06:15:07;;;;;;;15.05;11.68;;;17.10;80.60;;;;;;5067043;28;20356;-77
2023/10/15 06:17:33;;;;;;;17.73;13.07;;;17.00;87.90;;;;;;5096874;28;20016;-77
2023/10/15 06:20:12;;;;;;;14.25;12.30;;;17.00;90.80;;;;;;5095240;28;20028;-77
2023/10/15 06:22:42;;;;;;;14.15;12.40;;;17.10;92.90;;;;;;5096397;28;20015;-77
2023/10/15 06:25:09;;;;;;;15.95;12.30;;;17.10;94.30;;;;;;5102223;28;20016;-77
2023/10/15 06:27:38;;;;;;;15.35;12.20;;;17.20;95.00;;;;;;5085831;28;20024;-77
2023/10/15 06:30:09;;;;;;;15.70;12.57;;;17.10;95.50;;;;;;5105893;28;20031;-77
2023/10/15 06:32:35;;;;;;;20.02;14.73;;;17.10;99.70;;;;;;5103066;28;20479;-77
2023/10/15 06:35:05;;;;;;;16.27;13.07;;;17.10;99.90;;;;;;5100140;28;20031;-77
2023/10/15 06:37:31;;;;;;;15.55;12.75;;;17.10;99.90;;;;;;5099956;28;20051;-77
2023/10/15 06:40:00;;;;;;;15.95;13.00;;;17.20;99.90;;;;;;5098617;28;20501;-77
2023/10/15 06:42:26;;;;;;;17.77;12.85;;;17.30;99.70;;;;;;5099830;28;20023;-77
2023/10/15 06:44:52;;;;;;;18.77;12.13;;;17.40;97.00;;;;;;5101424;28;20712;-77
2023/10/15 06:47:18;;;;;;;17.70;11.32;;;17.40;92.60;;;;;;5083432;28;20427;-77
2023/10/15 06:49:44;;;;;;;20.83;12.60;;;17.50;87.00;;;;;;5102626;28;20110;-77
2023/10/15 06:52:10;;;;;;;15.00;13.18;;;17.50;95.20;;;;;;5101295;28;20024;-74
2023/10/15 06:54:36;;;;;;;17.85;12.65;;;17.50;99.90;;;;;;5096156;28;20038;-77
2023/10/15 06:57:04;;;;;;;16.42;12.20;;;17.60;99.90;;;;;;5102007;28;20031;-77
2023/10/15 06:59:31;;;;;;;20.75;13.75;;;17.60;99.90;;;;;;5100850;28;20097;-77
2023/10/15 07:01:56;;;;;;;27.27;19.92;;;17.70;98.20;;;;;;5099007;28;20099;-77
2023/10/15 07:04:24;;;;;;;23.33;19.20;;;17.80;99.90;;;;;;5092551;28;20115;-77
2023/10/15 07:06:49;;;;;;;27.15;18.65;;;17.80;99.90;;;;;;5101325;28;20031;-77
2023/10/15 07:09:16;;;;;;;22.13;17.27;;;17.90;99.90;;;;;;5098771;28;20035;-77
2023/10/15 07:11:44;;;;;;;24.35;18.40;;;17.90;99.90;;;;;;5103440;28;20028;-77
2023/10/15 07:14:09;;;;;;;28.90;21.48;;;18.00;99.90;;;;;;5098872;28;20452;-76
2023/10/15 07:16:35;;;;;;;27.65;20.10;;;18.10;99.90;;;;;;5102483;28;20410;-76
2023/10/15 07:19:01;;;;;;;31.75;20.27;;;18.10;99.90;;;;;;5095891;28;20019;-76
2023/10/15 07:21:27;;;;;;;38.65;25.00;;;18.20;99.90;;;;;;5086199;28;20055;-74
2023/10/15 07:23:53;;;;;;;38.22;25.42;;;18.20;99.90;;;;;;5099811;28;20052;-76
2023/10/15 07:26:19;;;;;;;39.13;23.77;;;18.30;99.90;;;;;;5103828;28;20031;-76
2023/10/15 07:28:44;;;;;;;38.03;25.73;;;18.30;99.90;;;;;;5100338;28;20414;-74
2023/10/15 07:31:12;;;;;;;38.58;24.55;;;18.30;99.90;;;;;;5098183;28;20039;-76
2023/10/15 07:33:38;;;;;;;37.75;23.95;;;18.30;99.90;;;;;;5081237;28;20080;-77
2023/10/15 07:36:04;;;;;;;38.58;24.73;;;18.40;99.90;;;;;;5096481;28;20040;-76
2023/10/15 07:38:29;;;;;;;37.10;24.52;;;18.50;99.90;;;;;;5080151;28;20021;-76
2023/10/15 07:40:55;;;;;;;39.05;24.63;;;18.50;99.90;;;;;;5095287;28;20024;-77
2023/10/15 07:43:24;;;;;;;36.47;24.13;;;18.50;99.90;;;;;;5107684;28;20016;-76
2023/10/15 07:45:50;;;;;;;39.30;27.45;;;18.60;99.90;;;;;;5096765;28;20023;-77
2023/10/15 07:48:15;;;;;;;45.20;27.10;;;18.60;99.90;;;;;;5101776;28;20023;-76
2023/10/15 07:50:43;;;;;;;40.92;26.17;;;18.60;95.40;;;;;;5096891;28;20019;-77
2023/10/15 07:53:08;;;;;;;40.22;24.83;;;18.60;94.40;;;;;;5085687;28;20082;-77
2023/10/15 07:55:34;;;;;;;43.08;25.40;;;18.70;95.10;;;;;;5096480;28;20020;-77
2023/10/15 07:58:00;;;;;;;43.33;26.00;;;18.70;87.10;;;;;;5103220;28;20026;-77
2023/10/15 08:00:30;;;;;;;36.97;25.50;;;18.80;90.30;;;;;;5101170;28;20023;-77
2023/10/15 08:03:00;;;;;;;37.13;25.75;;;18.80;94.00;;;;;;5101145;28;20028;-77
2023/10/15 08:05:28;;;;;;;41.35;26.33;;;18.90;93.00;;;;;;5101619;28;20020;-77
2023/10/15 08:07:56;;;;;;;40.95;27.23;;;18.90;93.30;;;;;;5100541;28;20020;-74
2023/10/15 08:10:23;;;;;;;45.53;27.88;;;19.00;92.10;;;;;;5096777;28;20020;-74
2023/10/15 08:12:49;;;;;;;45.13;27.75;;;19.00;93.70;;;;;;5100204;28;20508;-76
2023/10/15 08:15:16;;;;;;;41.55;27.25;;;19.00;84.50;;;;;;5093260;28;20047;-76
2023/10/15 08:17:46;;;;;;;50.17;30.50;;;19.10;88.20;;;;;;5103662;28;20344;-74
2023/10/15 08:20:12;;;;;;;48.90;29.85;;;19.10;89.80;;;;;;5093754;28;20070;-74
2023/10/15 08:22:43;;;;;;;43.63;28.88;;;19.20;90.90;;;;;;5081666;28;20024;-74
2023/10/15 08:25:21;;;;;;;58.00;33.88;;;19.30;92.50;;;;;;5087106;28;20105;-74
2023/10/15 08:27:47;;;;;;;60.97;33.65;;;19.30;95.90;;;;;;5076875;28;20012;-76
2023/10/15 08:30:14;;;;;;;55.60;34.75;;;19.40;92.50;;;;;;5100331;28;20501;-76
2023/10/15 08:32:44;;;;;;;57.60;35.42;;;19.40;91.20;;;;;;5082205;28;20545;-76
2023/10/15 08:35:13;;;;;;;57.00;34.75;;;19.40;91.60;;;;;;5096211;28;20051;-76
2023/10/15 08:37:39;;;;;;;61.83;35.10;;;19.40;90.80;;;;;;5085361;28;20024;-76
2023/10/15 08:40:06;;;;;;;63.33;37.35;;;19.50;91.70;;;;;;5078412;28;20016;-73
2023/10/15 08:42:42;;;;;;;64.60;38.33;;;19.50;90.90;;;;;;5100938;28;20034;-74
2023/10/15 08:45:09;;;;;;;53.67;34.05;;;19.50;90.50;;;;;;5064762;28;20371;-76
2023/10/15 08:47:36;;;;;;;54.97;36.38;;;19.60;93.10;;;;;;5100249;28;20055;-76
2023/10/15 08:50:02;;;;;;;61.28;38.60;;;19.60;90.90;;;;;;5096711;28;20020;-76
2023/10/15 08:52:30;;;;;;;67.28;37.13;;;19.60;83.70;;;;;;5081869;28;20024;-76
2023/10/15 08:54:59;;;;;;;62.33;36.20;;;19.60;89.20;;;;;;5081249;28;20070;-76
2023/10/15 08:57:26;;;;;;;59.92;34.75;;;19.70;91.80;;;;;;5100469;28;20486;-76
2023/10/15 08:59:53;;;;;;;58.58;35.15;;;19.70;89.00;;;;;;5102834;28;20024;-76
2023/10/15 09:02:19;;;;;;;60.50;35.45;;;19.70;87.30;;;;;;5099867;28;20027;-76
2023/10/15 09:04:45;;;;;;;56.08;36.20;;;19.90;90.40;;;;;;5096875;28;20039;-77
2023/10/15 09:07:17;;;;;;;59.63;35.70;;;19.90;88.90;;;;;;5100188;28;20406;-73
2023/10/15 09:09:43;;;;;;;56.22;34.90;;;19.90;79.70;;;;;;5101101;28;20080;-73
2023/10/15 09:12:12;;;;;;;54.97;34.63;;;20.00;64.90;;;;;;5082390;28;20525;-73
2023/10/15 09:14:46;;;;;;;56.17;34.85;;;20.00;67.10;;;;;;5096450;28;20106;-73
2023/10/15 09:17:16;;;;;;;49.67;33.80;;;20.00;62.40;;;;;;5102037;28;20027;-74
2023/10/15 09:19:44;;;;;;;57.45;35.15;;;20.00;64.90;;;;;;5099226;28;20066;-73
2023/10/15 09:22:16;;;;;;;58.38;37.40;;;20.10;63.80;;;;;;5082640;28;20028;-73
2023/10/15 09:24:43;;;;;;;58.20;35.28;;;20.10;55.90;;;;;;5098943;28;20439;-74
2023/10/15 09:27:09;;;;;;;47.35;34.22;;;20.20;53.80;;;;;;5098718;28;20024;-73
2023/10/15 09:29:35;;;;;;;58.55;35.38;;;20.30;56.00;;;;;;5099187;28;20039;-74
2023/10/15 09:32:02;;;;;;;51.08;33.92;;;20.30;55.40;;;;;;5102347;28;20032;-73
2023/10/15 09:34:33;;;;;;;50.42;32.83;;;20.40;52.40;;;;;;5108110;28;20027;-73
2023/10/15 09:36:59;;;;;;;50.17;31.75;;;20.40;41.20;;;;;;5104208;28;20047;-74
2023/10/15 09:39:29;;;;;;;51.65;30.80;;;20.40;39.00;;;;;;5084703;28;20019;-73
2023/10/15 09:42:05;;;;;;;51.60;30.60;;;20.40;20.00;;;;;;5103491;28;20028;-73
2023/10/15 09:44:35;;;;;;;45.53;28.55;;;20.40;24.60;;;;;;5108186;28;20500;-73
2023/10/15 09:47:01;;;;;;;46.10;29.98;;;20.50;34.80;;;;;;5103347;28;20024;-73
2023/10/15 09:49:29;;;;;;;49.45;28.27;;;20.50;27.00;;;;;;5104700;28;20375;-74
2023/10/15 09:51:55;;;;;;;49.10;28.50;;;20.60;16.50;;;;;;5105209;28;20453;-74
2023/10/15 09:54:23;;;;;;;43.70;26.83;;;20.60;20.70;;;;;;5102612;28;20075;-74
2023/10/15 09:56:50;;;;;;;46.85;29.88;;;20.60;1.00;;;;;;5085660;28;20394;-74
2023/10/15 09:59:17;;;;;;;54.53;29.33;;;20.60;1.00;;;;;;5103918;28;20030;-74
2023/10/15 10:01:49;;;;;;;58.28;32.97;;;20.60;1.00;;;;;;5106789;28;20195;-74
2023/10/15 10:04:52;;;;;;;51.75;33.03;;;20.70;5.90;;;;;;5100357;28;20393;-74
2023/10/15 10:07:38;;;;;;;56.03;30.35;;;20.70;7.00;;;;;;5105493;28;20026;-74
2023/10/15 10:10:10;;;;;;;53.97;29.73;;;20.70;1.00;;;;;;5071136;28;20482;-74
2023/10/15 10:13:02;;;;;;;54.65;30.73;;;20.80;3.20;;;;;;5101358;28;20031;-74
2023/10/15 10:15:54;;;;;;;45.13;29.35;;;20.90;2.30;;;;;;5100036;28;20525;-74
2023/10/15 10:18:21;;;;;;;53.35;31.13;;;20.90;3.60;;;;;;5099525;28;20387;-74
2023/10/15 10:20:48;;;;;;;49.85;29.63;;;20.90;4.50;;;;;;5096888;28;20016;-74
2023/10/15 10:23:14;;;;;;;49.58;29.88;;;20.90;1.00;;;;;;5105005;28;20045;-74
2023/10/15 10:25:46;;;;;;;44.95;30.23;;;20.90;1.00;;;;;;5099193;28;20028;-74
2023/10/15 10:28:16;;;;;;;49.65;29.60;;;21.00;4.20;;;;;;5081716;28;20043;-74
2023/10/15 10:30:55;;;;;;;41.05;27.13;;;21.10;1.00;;;;;;5098693;28;20071;-74
2023/10/15 10:33:48;;;;;;;43.88;27.67;;;21.20;1.00;;;;;;5097958;28;20030;-74
2023/10/15 10:36:21;;;;;;;46.00;25.63;;;21.30;1.00;;;;;;5100228;28;20040;-74
2023/10/15 10:39:07;;;;;;;40.28;25.10;;;21.30;1.00;;;;;;5101412;28;20082;-74
2023/10/15 10:41:51;;;;;;;46.72;28.02;;;21.30;1.00;;;;;;5099243;28;20387;-74
2023/10/15 10:44:23;;;;;;;42.80;26.92;;;21.40;1.00;;;;;;5063706;28;20051;-74
2023/10/15 10:46:50;;;;;;;41.55;25.45;;;21.40;1.00;;;;;;5101126;28;20032;-74
2023/10/15 10:49:36;;;;;;;46.33;27.88;;;21.40;1.00;;;;;;5104678;28;20016;-74
2023/10/15 10:52:14;;;;;;;56.10;30.65;;;21.50;1.00;;;;;;5094077;28;20032;-74
2023/10/15 10:54:41;;;;;;;47.08;27.63;;;21.60;1.00;;;;;;5100445;28;20066;-74
2023/10/15 10:57:07;;;;;;;50.72;29.67;;;21.50;1.00;;;;;;5104281;28;20488;-74
2023/10/15 10:59:34;;;;;;;48.50;28.55;;;21.60;1.00;;;;;;5099275;28;20019;-74
2023/10/15 11:02:00;;;;;;;52.92;33.00;;;21.60;1.00;;;;;;5101785;28;20117;-74
2023/10/15 11:04:26;;;;;;;56.50;34.85;;;21.60;1.00;;;;;;5103446;28;20057;-74
2023/10/15 11:06:52;;;;;;;58.88;34.95;;;21.60;1.00;;;;;;5084257;28;20052;-74
2023/10/15 11:09:22;;;;;;;59.53;33.35;;;21.60;1.00;;;;;;5104205;28;20481;-74
2023/10/15 11:11:52;;;;;;;53.40;34.55;;;21.50;1.00;;;;;;5104530;28;20027;-74
2023/10/15 11:14:23;;;;;;;55.20;32.50;;;21.60;1.00;;;;;;5102793;28;20386;-74
2023/10/15 11:16:53;;;;;;;56.47;31.40;;;21.60;1.00;;;;;;5101641;28;20012;-74
2023/10/15 11:19:25;;;;;;;48.25;30.15;;;21.60;1.00;;;;;;5098655;28;20020;-74
2023/10/15 11:21:52;;;;;;;55.25;32.15;;;21.60;1.00;;;;;;5103411;28;20023;-74
2023/10/15 11:24:20;;;;;;;50.90;30.38;;;21.60;1.00;;;;;;5100981;28;20026;-74
2023/10/15 11:26:46;;;;;;;45.42;29.10;;;21.60;1.00;;;;;;5083080;28;20100;-74
2023/10/15 11:29:14;;;;;;;47.50;30.17;;;21.60;1.00;;;;;;5102341;28;20024;-74
2023/10/15 11:31:44;;;;;;;45.15;28.35;;;21.70;1.00;;;;;;5099066;28;20629;-74
2023/10/15 11:34:20;;;;;;;46.78;26.77;;;21.70;1.00;;;;;;5094818;28;20031;-74
2023/10/15 11:36:50;;;;;;;46.17;29.00;;;21.80;1.00;;;;;;5115125;27;20048;-74
2023/10/15 11:39:25;;;;;;;45.00;28.10;;;21.80;1.00;;;;;;5100129;28;20048;-74
2023/10/15 11:41:57;;;;;;;43.08;27.45;;;21.80;1.00;;;;;;5100626;28;20446;-74
2023/10/15 11:44:30;;;;;;;43.22;27.08;;;21.90;1.00;;;;;;5084087;28;20063;-74
2023/10/15 11:47:24;;;;;;;48.17;29.60;;;21.90;1.00;;;;;;5101637;28;20024;-74
2023/10/15 11:49:46;;;;;;;42.35;27.13;;;22.00;1.00;;;;;;5094907;28;20082;-74
2023/10/15 11:52:14;;;;;;;53.25;27.55;;;22.00;1.00;;;;;;5098835;28;20028;-74
2023/10/15 11:54:43;;;;;;;45.33;27.60;;;22.10;1.00;;;;;;5084184;28;20028;-74
2023/10/15 11:57:16;;;;;;;43.90;26.70;;;22.10;1.00;;;;;;5101889;28;20051;-74
2023/10/15 11:59:42;;;;;;;42.10;27.02;;;22.10;1.00;;;;;;5097622;28;20015;-74
2023/10/15 12:02:11;;;;;;;45.28;27.05;;;22.20;1.00;;;;;;5103581;28;20020;-74
2023/10/15 12:04:40;;;;;;;40.60;26.60;;;22.20;1.00;;;;;;5100424;28;20025;-73
2023/10/15 12:07:11;;;;;;;42.45;25.65;;;22.20;99.90;;;;;;5102241;28;20034;-74
2023/10/15 12:09:39;;;;;;;45.45;25.27;;;22.20;99.90;;;;;;5096782;28;20024;-74
2023/10/15 12:12:07;;;;;;;36.67;23.67;;;22.30;99.90;;;;;;5086027;28;20035;-74
2023/10/15 12:14:33;;;;;;;35.45;22.08;;;22.30;99.90;;;;;;5100776;28;20030;-74
2023/10/15 12:16:59;;;;;;;38.35;22.58;;;22.30;99.90;;;;;;5103000;28;20094;-74
2023/10/15 12:19:24;;;;;;;39.45;22.00;;;22.30;99.90;;;;;;5096108;28;20028;-74
2023/10/15 12:21:50;;;;;;;31.00;20.40;;;22.30;99.90;;;;;;5098409;28;20065;-74
2023/10/15 12:24:17;;;;;;;29.75;19.27;;;22.30;99.90;;;;;;5101848;28;20482;-74
2023/10/15 12:26:46;;;;;;;33.88;19.80;;;22.40;99.90;;;;;;5084362;28;20023;-74
2023/10/15 12:29:13;;;;;;;38.10;19.98;;;22.40;99.90;;;;;;5099359;28;20057;-74
2023/10/15 12:31:43;;;;;;;28.33;18.65;;;22.50;99.90;;;;;;5099781;28;20450;-74
2023/10/15 12:34:12;;;;;;;29.73;19.77;;;22.60;99.90;;;;;;5079535;28;20395;-74
2023/10/15 12:36:38;;;;;;;28.05;17.50;;;22.70;99.90;;;;;;5098691;28;20094;-74
2023/10/15 12:39:05;;;;;;;22.02;14.55;;;22.70;1.00;;;;;;5097086;28;20024;-74
2023/10/15 12:41:34;;;;;;;23.75;13.65;;;22.80;1.00;;;;;;5080607;28;20039;-74
2023/10/15 12:44:00;;;;;;;21.58;13.88;;;22.80;1.00;;;;;;5079529;28;20020;-74
2023/10/15 12:46:26;;;;;;;15.88;11.05;;;22.80;99.90;;;;;;5102969;28;20015;-74
2023/10/15 12:48:52;;;;;;;16.02;10.30;;;22.90;99.90;;;;;;5101429;28;20111;-74
2023/10/15 12:51:19;;;;;;;19.00;9.75;;;22.90;99.90;;;;;;5103174;28;20110;-74
2023/10/15 12:53:46;;;;;;;10.48;7.60;;;22.90;99.90;;;;;;5082501;28;20073;-74
2023/10/15 12:56:12;;;;;;;13.65;6.40;;;23.00;99.90;;;;;;5101012;28;20473;-74
2023/10/15 12:58:38;;;;;;;9.23;7.35;;;23.10;1.00;;;;;;5081185;28;20286;-74
2023/10/15 13:01:05;;;;;;;8.65;6.22;;;23.00;1.00;;;;;;5101292;28;20146;-74